createdAt,value
2022-10-23T09:44:17.496Z,15.35
2022-10-23T09:49:24.509Z,14.20
2022-10-23T09:54:26.588Z,14.53
2022-10-23T09:59:34.510Z,15.80
2022-10-23T10:04:38.564Z,17.27
2022-10-23T10:09:40.708Z,15.37
2022-10-23T10:15:05.037Z,16.25
2022-10-23T10:20:07.313Z,15.70
2022-10-23T10:25:34.165Z,12.10
2022-10-23T10:30:42.297Z,14.30
2022-10-23T10:36:00.796Z,14.40
2022-10-23T10:41:05.756Z,15.37
2022-10-23T10:46:37.150Z,14.27
2022-10-23T10:52:01.334Z,14.18
2022-10-23T10:57:05.404Z,17.50
2022-10-23T11:02:13.752Z,14.03
2022-10-23T11:07:19.178Z,15.23
2022-10-23T11:12:26.547Z,13.10
2022-10-23T11:17:40.000Z,13.60
2022-10-23T11:23:21.238Z,13.23
2022-10-23T11:29:01.064Z,12.25
2022-10-23T11:34:08.892Z,12.10
2022-10-23T11:39:31.976Z,12.30
2022-10-23T11:44:45.005Z,13.40
2022-10-23T11:54:40.590Z,15.63
2022-10-23T11:59:45.394Z,17.03
2022-10-23T12:04:50.670Z,15.98
2022-10-23T12:09:59.449Z,18.90
2022-10-23T12:15:12.112Z,16.73
2022-10-23T12:20:14.072Z,13.40
2022-10-23T12:25:42.155Z,15.30
2022-10-23T12:31:02.889Z,16.53
2022-10-23T12:36:15.974Z,16.40
2022-10-23T12:41:29.659Z,17.95
2022-10-23T12:46:33.177Z,16.92
2022-10-23T12:51:35.785Z,18.20
2022-10-23T12:56:39.018Z,18.62
2022-10-23T13:01:43.296Z,17.15
2022-10-23T13:06:45.979Z,18.33
2022-10-23T13:11:49.369Z,18.25
2022-10-23T13:17:03.135Z,17.62
2022-10-23T13:22:18.524Z,16.40
2022-10-23T13:27:34.194Z,16.90
2022-10-23T13:32:36.272Z,14.93
2022-10-23T13:42:53.318Z,11.90
2022-10-23T13:47:55.471Z,11.05
2022-10-23T13:52:58.395Z,12.23
2022-10-23T13:58:00.444Z,12.20
2022-10-23T14:03:02.479Z,12.95
2022-10-23T14:08:04.535Z,12.32
2022-10-23T14:13:06.771Z,11.50
2022-10-23T14:18:08.944Z,12.40
2022-10-23T14:23:11.022Z,13.68
2022-10-23T14:28:13.089Z,14.05
2022-10-23T14:33:16.723Z,13.37
2022-10-23T14:38:18.766Z,15.02
2022-10-23T14:43:21.913Z,16.02
2022-10-23T14:48:23.928Z,16.97
2022-10-23T14:53:25.931Z,12.52
2022-10-23T14:58:28.472Z,14.70
2022-10-23T15:03:30.736Z,14.30
2022-10-23T15:08:33.529Z,15.53
2022-10-23T15:13:35.520Z,15.05
2022-10-23T15:23:46.011Z,14.93
2022-10-23T15:28:53.307Z,16.83
2022-10-23T15:33:58.706Z,17.12
2022-10-23T15:39:01.035Z,18.07
2022-10-23T15:44:05.244Z,15.77
2022-10-23T15:49:08.554Z,14.73
2022-10-23T15:54:18.994Z,16.47
2022-10-23T15:59:24.547Z,15.30
2022-10-23T16:04:26.560Z,13.82
2022-10-23T16:09:29.752Z,15.75
2022-10-23T16:14:31.744Z,14.43
2022-10-23T16:19:34.270Z,16.20
2022-10-23T16:24:36.412Z,16.20
2022-10-23T16:29:38.416Z,17.17
2022-10-23T16:34:40.459Z,16.90
2022-10-23T16:39:42.431Z,15.32
2022-10-23T16:44:44.437Z,14.90
2022-10-23T16:49:46.452Z,12.50
2022-10-23T16:54:48.457Z,14.43
2022-10-23T16:59:50.458Z,11.95
2022-10-23T17:04:52.535Z,9.37
2022-10-23T17:09:54.552Z,6.43
2022-10-23T17:14:56.594Z,5.93
2022-10-23T17:19:58.639Z,5.53
2022-10-23T17:25:00.674Z,5.37
2022-10-23T17:30:02.831Z,5.35
2022-10-23T17:35:06.501Z,5.27
2022-10-23T17:40:09.120Z,4.80
2022-10-23T17:45:11.362Z,4.95
2022-10-23T17:50:13.910Z,4.85
2022-10-23T17:55:15.965Z,5.70
2022-10-23T18:00:18.047Z,4.72
2022-10-23T18:05:20.220Z,5.07
2022-10-23T18:10:22.254Z,5.07
2022-10-23T18:15:24.254Z,4.72
2022-10-23T18:20:26.265Z,6.07
2022-10-23T18:25:28.298Z,6.07
2022-10-23T18:30:30.368Z,6.50
2022-10-23T18:35:35.863Z,6.87
2022-10-23T18:40:38.340Z,9.32
2022-10-23T18:45:42.661Z,10.27
2022-10-23T18:50:44.646Z,7.50
2022-10-23T18:55:50.974Z,7.72
2022-10-23T19:00:53.021Z,9.70
2022-10-23T19:05:55.028Z,8.45
2022-10-23T19:11:00.193Z,8.48
2022-10-23T19:16:06.022Z,8.13
2022-10-23T19:21:08.204Z,8.57
2022-10-23T19:26:13.345Z,8.27
2022-10-23T19:31:16.048Z,9.45
2022-10-23T19:36:21.009Z,8.77
